Nrc Patriot II — WDA8587 — position and weather

sailwx.info

Track history (hours):
 
Tides and Currents Weather Stations Pressure Air Temp Water Temp Dewpoint Dewpoint Depression Visibility Wind Speed Wind Dir Waves Ship Positions

Nrc Patriot II

More information available from US FCC via Universal Licensing System and Coast Guard Vessel Documentation Center.

Last reported at 2014-Sep-21 13:31 UTC. Time now 2014-Sep-21 14:08 UTC.
Position N 33°44' W 118°16'.

Length 30 m; draft 3.5 m.

Type: Port tender. MMSI: 366855940.

Date/timePositionNaut miles runAvg speedWind from/ knotsBaromVisibWave heightAir tempDewpointWater temp
2014-Sep-21 13:31N 33°44' W 118°16'8 8.2
2014-Sep-21 12:32N 33°41' W 118°07'4 1.0
2014-Sep-21 08:33N 33°40' W 118°03'0 0.0
2014-Sep-21 07:32N 33°40' W 118°03'0 0.0
2014-Sep-21 06:34N 33°40' W 118°03'0 0.1
2014-Sep-21 05:33N 33°40' W 118°03'5 4.8
2014-Sep-21 04:33N 33°42' W 118°08'5 0.2
2014-Sep-19 23:21N 33°40' W 118°03'12 0.3
2014-Sep-18 08:19N 33°44' W 118°16'12 4.0
2014-Sep-18 05:19N 33°40' W 118°03'5 5.8
2014-Sep-18 04:31N 33°42' W 118°08'7 6.6
2014-Sep-18 03:23N 33°44' W 118°16'0 0.0
2014-Sep-18 02:33N 33°44' W 118°16'0 0.0
2014-Sep-18 01:30N 33°44' W 118°16'6 6.9
2014-Sep-18 00:34N 33°40' W 118°10'6 6.1
2014-Sep-17 23:33N 33°40' W 118°03'0 0.0
2014-Sep-17 22:33N 33°40' W 118°03'0 0.1
2014-Sep-17 21:33N 33°40' W 118°03'0 0.0
2014-Sep-17 20:33N 33°40' W 118°03'0 0.0
2014-Sep-17 19:33N 33°40' W 118°03'0 0.1
2014-Sep-17 18:33N 33°40' W 118°03'5 5.2
2014-Sep-17 17:33N 33°40' W 118°09'7 7.1
2014-Sep-17 16:31N 33°44' W 118°16'0 0.0
2014-Sep-17 15:31N 33°44' W 118°16'0 0.1
2014-Sep-17 14:33N 33°44' W 118°16'0 0.0
2014-Sep-17 13:33N 33°44' W 118°16'0 0.4
2014-Sep-17 12:33N 33°44' W 118°16'8 7.9
2014-Sep-17 11:33N 33°42' W 118°07'4 4.4
2014-Sep-17 10:34N 33°40' W 118°03'0 0.0
2014-Sep-17 09:32N 33°40' W 118°03'0 0.0
2014-Sep-17 08:33N 33°40' W 118°03'0 0.0
2014-Sep-17 07:34N 33°40' W 118°03'0 0.0
2014-Sep-17 06:33N 33°40' W 118°03'0 0.1
2014-Sep-17 05:33N 33°40' W 118°03'3 3.1
2014-Sep-17 04:33N 33°42' W 118°05'9 8.9
2014-Sep-17 03:34N 33°43' W 118°16'12 2.6
2014-Sep-16 23:06N 33°40' W 118°03'0 0.0
2014-Sep-16 22:34N 33°40' W 118°03'10 9.5
2014-Sep-16 21:33N 33°43' W 118°13'2 2.5
2014-Sep-16 20:33N 33°44' W 118°16'0 0.0
2014-Sep-16 19:33N 33°44' W 118°16'0 0.0
2014-Sep-16 18:34N 33°44' W 118°16'0 0.0
2014-Sep-16 17:33N 33°44' W 118°16'0 0.0
2014-Sep-16 16:33N 33°44' W 118°16'0 0.0
2014-Sep-16 15:34N 33°44' W 118°16'0 0.3
2014-Sep-16 14:34N 33°44' W 118°16'0 0.3
2014-Sep-16 13:33N 33°44' W 118°16'7 7.3
2014-Sep-16 12:33N 33°43' W 118°07'5 5.1
2014-Sep-16 11:32N 33°40' W 118°03'0 0.0
2014-Sep-16 10:32N 33°40' W 118°03'0 0.0
2014-Sep-16 09:33N 33°40' W 118°03'0 0.0
2014-Sep-16 08:32N 33°40' W 118°03'0 0.0
2014-Sep-16 07:22N 33°40' W 118°03'0 0.1
2014-Sep-16 06:34N 33°40' W 118°03'0 0.0
2014-Sep-16 05:29N 33°40' W 118°03'3 2.7
2014-Sep-16 04:34N 33°41' W 118°05'9 8.9
2014-Sep-16 03:33N 33°43' W 118°16'1 1.3
2014-Sep-16 02:34N 33°44' W 118°16'0 0.0
2014-Sep-16 01:33N 33°44' W 118°16'0 0.3
2014-Sep-16 00:34N 33°44' W 118°16'9 8.8
2014-Sep-15 23:34N 33°41' W 118°06'3 3.3
2014-Sep-15 22:34N 33°40' W 118°03'0 0.2
2014-Sep-15 21:33N 33°40' W 118°02'2 2.0
2014-Sep-15 20:33N 33°41' W 118°05'10 9.7
2014-Sep-15 19:33N 33°43' W 118°16'1 1.1
2014-Sep-15 18:33N 33°44' W 118°16'0 0.4
2014-Sep-15 17:34N 33°44' W 118°16'0 0.4
2014-Sep-15 16:34N 33°44' W 118°16'0 0.0
2014-Sep-15 15:32N 33°44' W 118°16'0 0.1
2014-Sep-15 14:33N 33°44' W 118°16'0 0.0
2014-Sep-15 13:33N 33°44' W 118°16'0 0.0
2014-Sep-15 12:33N 33°44' W 118°16'0 0.0
2014-Sep-15 11:33N 33°44' W 118°16'0 0.0
2014-Sep-15 10:33N 33°44' W 118°16'6 6.1
2014-Sep-15 09:33N 33°44' W 118°09'7 6.7
2014-Sep-15 08:34N 33°40' W 118°03'0 0.0
2014-Sep-15 07:33N 33°40' W 118°03'0 0.1
2014-Sep-15 06:34N 33°40' W 118°03'0 0.0
2014-Sep-15 05:33N 33°40' W 118°03'0 0.1
2014-Sep-15 04:33N 33°40' W 118°03'0 0.1
2014-Sep-15 03:33N 33°40' W 118°03'8 7.8
2014-Sep-15 02:34N 33°44' W 118°11'4 4.5
2014-Sep-15 01:33N 33°44' W 118°16'0 0.0
2014-Sep-15 00:34N 33°44' W 118°16'0 0.0
2014-Sep-14 23:33N 33°44' W 118°16'5 5.3
2014-Sep-14 22:34N 33°43' W 118°10'7 6.9
2014-Sep-14 21:33N 33°40' W 118°03'0 0.0
2014-Sep-14 20:34N 33°40' W 118°03'0 0.1
2014-Sep-14 19:34N 33°40' W 118°03'0 0.0
2014-Sep-14 18:34N 33°40' W 118°03'3 2.9
2014-Sep-14 17:33N 33°41' W 118°06'9 9.1
2014-Sep-14 16:33N 33°44' W 118°16'0 0.4
2014-Sep-14 15:34N 33°44' W 118°16'0 0.0
2014-Sep-14 14:33N 33°44' W 118°16'1 0.6
2014-Sep-14 13:34N 33°44' W 118°16'8 8.4
2014-Sep-14 12:33N 33°39' W 118°08'4 4.4
2014-Sep-14 11:33N 33°40' W 118°03'0 0.0
2014-Sep-14 10:33N 33°40' W 118°03'0 0.1
2014-Sep-14 09:33N 33°40' W 118°03'0 0.1
2014-Sep-14 08:34N 33°40' W 118°03'0 0.1
2014-Sep-14 07:33N 33°40' W 118°03'0 0.0
2014-Sep-14 06:33N 33°40' W 118°03'0 0.0
2014-Sep-14 05:33N 33°40' W 118°03'9 8.6
2014-Sep-14 04:34N 33°40' W 118°13'5 4.6
2014-Sep-14 03:33N 33°44' W 118°16'0 0.0
2014-Sep-14 02:34N 33°44' W 118°16'2 2.2
2014-Sep-14 01:33N 33°43' W 118°14'10 2.5
2014-Sep-13 21:33N 33°40' W 118°03'0 0.0
2014-Sep-13 20:33N 33°40' W 118°03'8 7.8
2014-Sep-13 19:33N 33°43' W 118°11'4 4.4
2014-Sep-13 18:34N 33°44' W 118°16'0 0.0
2014-Sep-13 17:34N 33°44' W 118°16'0 0.0
2014-Sep-13 16:34N 33°44' W 118°16'0 0.0
2014-Sep-13 15:33N 33°44' W 118°16'0 0.0
2014-Sep-13 14:33N 33°44' W 118°16'0 0.0
2014-Sep-13 13:33N 33°44' W 118°16'7 7.0
2014-Sep-13 12:33N 33°44' W 118°08'6 5.9
2014-Sep-13 11:33N 33°40' W 118°03'0 0.0
2014-Sep-13 10:34N 33°40' W 118°03'0 0.1
2014-Sep-13 09:33N 33°40' W 118°03'0 0.1
2014-Sep-13 08:33N 33°40' W 118°03'0 0.1
2014-Sep-13 07:33N 33°40' W 118°03'0 0.2
2014-Sep-13 06:33N 33°40' W 118°02'0 0.0
2014-Sep-13 05:33N 33°40' W 118°02'0 0.2
2014-Sep-13 04:33N 33°40' W 118°03'0 0.0
2014-Sep-13 03:33N 33°40' W 118°03'9 8.1
2014-Sep-13 02:27N 33°43' W 118°12'3 3.6
2014-Sep-13 01:33N 33°44' W 118°16'0 0.0
2014-Sep-13 00:33N 33°44' W 118°16'0 0.0
2014-Sep-12 23:33N 33°44' W 118°16'0 0.1
2014-Sep-12 22:33N 33°44' W 118°16'0 0.0
2014-Sep-12 21:33N 33°44' W 118°16'0 0.0
2014-Sep-12 20:33N 33°44' W 118°16'4 3.5
2014-Sep-12 19:33N 33°44' W 118°12'9 8.7
2014-Sep-12 18:33N 33°40' W 118°03'0 0.1
2014-Sep-12 17:33N 33°40' W 118°03'0 0.0
2014-Sep-12 16:33N 33°40' W 118°03'0 0.0
2014-Sep-12 15:33N 33°40' W 118°03'0 0.0
2014-Sep-12 14:33N 33°40' W 118°03'0 0.1
2014-Sep-12 13:33N 33°40' W 118°03'0 0.0
2014-Sep-12 12:33N 33°40' W 118°03'0 0.1
2014-Sep-12 11:33N 33°40' W 118°03'0 0.1
2014-Sep-12 10:33N 33°40' W 118°03'0 0.0
2014-Sep-12 09:33N 33°40' W 118°03'0 0.0
2014-Sep-12 08:33N 33°40' W 118°03'0 0.0
2014-Sep-12 07:33N 33°40' W 118°03'0 0.0
2014-Sep-12 06:33N 33°40' W 118°03'5 4.7
2014-Sep-12 05:33N 33°43' W 118°07'8 7.9
2014-Sep-12 04:33N 33°44' W 118°16'0 0.3
2014-Sep-12 03:33N 33°44' W 118°16'0 0.0
2014-Sep-12 02:33N 33°44' W 118°16'0 0.0
2014-Sep-12 01:33N 33°44' W 118°16'0 0.0
2014-Sep-12 00:33N 33°44' W 118°16'1 1.1
2014-Sep-11 23:33N 33°43' W 118°16'9 9.1
2014-Sep-11 22:33N 33°41' W 118°05'2 2.3
2014-Sep-11 21:33N 33°40' W 118°03'0 0.1
2014-Sep-11 20:33N 33°40' W 118°03'0 0.1
2014-Sep-11 19:33N 33°40' W 118°03'0 0.1
2014-Sep-11 18:33N 33°40' W 118°03'8 8.4
2014-Sep-11 17:33N 33°44' W 118°12'4 3.8
2014-Sep-11 16:33N 33°44' W 118°16'0 0.0
2014-Sep-11 15:33N 33°44' W 118°16'0 0.0
2014-Sep-11 14:33N 33°44' W 118°16'3 2.8
2014-Sep-11 13:33N 33°43' W 118°13'  
Track history (hours):
 
Tides and Currents Weather Stations Pressure Air Temp Water Temp Dewpoint Dewpoint Depression Visibility Wind Speed Wind Dir Waves Ship Positions

Nrc Patriot II

More information available from US FCC via Universal Licensing System and Coast Guard Vessel Documentation Center.

Last reported at 2014-Sep-21 13:31 UTC. Time now 2014-Sep-21 14:08 UTC.
Position N 33°44' W 118°16'.

Length 30 m; draft 3.5 m.

Type: Port tender. MMSI: 366855940.

Date/timePositionNaut miles runAvg speedWind from/ knotsBaromVisibWave heightAir tempDewpointWater temp
2014-Sep-21 13:31N 33°44' W 118°16'8 8.2
2014-Sep-21 12:32N 33°41' W 118°07'4 1.0
2014-Sep-21 08:33N 33°40' W 118°03'0 0.0
2014-Sep-21 07:32N 33°40' W 118°03'0 0.0
2014-Sep-21 06:34N 33°40' W 118°03'0 0.1
2014-Sep-21 05:33N 33°40' W 118°03'5 4.8
2014-Sep-21 04:33N 33°42' W 118°08'5 0.2
2014-Sep-19 23:21N 33°40' W 118°03'12 0.3
2014-Sep-18 08:19N 33°44' W 118°16'12 4.0
2014-Sep-18 05:19N 33°40' W 118°03'5 5.8
2014-Sep-18 04:31N 33°42' W 118°08'7 6.6
2014-Sep-18 03:23N 33°44' W 118°16'0 0.0
2014-Sep-18 02:33N 33°44' W 118°16'0 0.0
2014-Sep-18 01:30N 33°44' W 118°16'6 6.9
2014-Sep-18 00:34N 33°40' W 118°10'6 6.1
2014-Sep-17 23:33N 33°40' W 118°03'0 0.0
2014-Sep-17 22:33N 33°40' W 118°03'0 0.1
2014-Sep-17 21:33N 33°40' W 118°03'0 0.0
2014-Sep-17 20:33N 33°40' W 118°03'0 0.0
2014-Sep-17 19:33N 33°40' W 118°03'0 0.1
2014-Sep-17 18:33N 33°40' W 118°03'5 5.2
2014-Sep-17 17:33N 33°40' W 118°09'7 7.1
2014-Sep-17 16:31N 33°44' W 118°16'0 0.0
2014-Sep-17 15:31N 33°44' W 118°16'0 0.1
2014-Sep-17 14:33N 33°44' W 118°16'0 0.0
2014-Sep-17 13:33N 33°44' W 118°16'0 0.4
2014-Sep-17 12:33N 33°44' W 118°16'8 7.9
2014-Sep-17 11:33N 33°42' W 118°07'4 4.4
2014-Sep-17 10:34N 33°40' W 118°03'0 0.0
2014-Sep-17 09:32N 33°40' W 118°03'0 0.0
2014-Sep-17 08:33N 33°40' W 118°03'0 0.0
2014-Sep-17 07:34N 33°40' W 118°03'0 0.0
2014-Sep-17 06:33N 33°40' W 118°03'0 0.1
2014-Sep-17 05:33N 33°40' W 118°03'3 3.1
2014-Sep-17 04:33N 33°42' W 118°05'9 8.9
2014-Sep-17 03:34N 33°43' W 118°16'12 2.6
2014-Sep-16 23:06N 33°40' W 118°03'0 0.0
2014-Sep-16 22:34N 33°40' W 118°03'10 9.5
2014-Sep-16 21:33N 33°43' W 118°13'2 2.5
2014-Sep-16 20:33N 33°44' W 118°16'0 0.0
2014-Sep-16 19:33N 33°44' W 118°16'0 0.0
2014-Sep-16 18:34N 33°44' W 118°16'0 0.0
2014-Sep-16 17:33N 33°44' W 118°16'0 0.0
2014-Sep-16 16:33N 33°44' W 118°16'0 0.0
2014-Sep-16 15:34N 33°44' W 118°16'0 0.3
2014-Sep-16 14:34N 33°44' W 118°16'0 0.3
2014-Sep-16 13:33N 33°44' W 118°16'7 7.3
2014-Sep-16 12:33N 33°43' W 118°07'5 5.1
2014-Sep-16 11:32N 33°40' W 118°03'0 0.0
2014-Sep-16 10:32N 33°40' W 118°03'0 0.0
2014-Sep-16 09:33N 33°40' W 118°03'0 0.0
2014-Sep-16 08:32N 33°40' W 118°03'0 0.0
2014-Sep-16 07:22N 33°40' W 118°03'0 0.1
2014-Sep-16 06:34N 33°40' W 118°03'0 0.0
2014-Sep-16 05:29N 33°40' W 118°03'3 2.7
2014-Sep-16 04:34N 33°41' W 118°05'9 8.9
2014-Sep-16 03:33N 33°43' W 118°16'1 1.3
2014-Sep-16 02:34N 33°44' W 118°16'0 0.0
2014-Sep-16 01:33N 33°44' W 118°16'0 0.3
2014-Sep-16 00:34N 33°44' W 118°16'9 8.8
2014-Sep-15 23:34N 33°41' W 118°06'3 3.3
2014-Sep-15 22:34N 33°40' W 118°03'0 0.2
2014-Sep-15 21:33N 33°40' W 118°02'2 2.0
2014-Sep-15 20:33N 33°41' W 118°05'10 9.7
2014-Sep-15 19:33N 33°43' W 118°16'1 1.1
2014-Sep-15 18:33N 33°44' W 118°16'0 0.4
2014-Sep-15 17:34N 33°44' W 118°16'0 0.4
2014-Sep-15 16:34N 33°44' W 118°16'0 0.0
2014-Sep-15 15:32N 33°44' W 118°16'0 0.1
2014-Sep-15 14:33N 33°44' W 118°16'0 0.0
2014-Sep-15 13:33N 33°44' W 118°16'0 0.0
2014-Sep-15 12:33N 33°44' W 118°16'0 0.0
2014-Sep-15 11:33N 33°44' W 118°16'0 0.0
2014-Sep-15 10:33N 33°44' W 118°16'6 6.1
2014-Sep-15 09:33N 33°44' W 118°09'7 6.7
2014-Sep-15 08:34N 33°40' W 118°03'0 0.0
2014-Sep-15 07:33N 33°40' W 118°03'0 0.1
2014-Sep-15 06:34N 33°40' W 118°03'0 0.0
2014-Sep-15 05:33N 33°40' W 118°03'0 0.1
2014-Sep-15 04:33N 33°40' W 118°03'0 0.1
2014-Sep-15 03:33N 33°40' W 118°03'8 7.8
2014-Sep-15 02:34N 33°44' W 118°11'4 4.5
2014-Sep-15 01:33N 33°44' W 118°16'0 0.0
2014-Sep-15 00:34N 33°44' W 118°16'0 0.0
2014-Sep-14 23:33N 33°44' W 118°16'5 5.3
2014-Sep-14 22:34N 33°43' W 118°10'7 6.9
2014-Sep-14 21:33N 33°40' W 118°03'0 0.0
2014-Sep-14 20:34N 33°40' W 118°03'0 0.1
2014-Sep-14 19:34N 33°40' W 118°03'0 0.0
2014-Sep-14 18:34N 33°40' W 118°03'3 2.9
2014-Sep-14 17:33N 33°41' W 118°06'9 9.1
2014-Sep-14 16:33N 33°44' W 118°16'0 0.4
2014-Sep-14 15:34N 33°44' W 118°16'0 0.0
2014-Sep-14 14:33N 33°44' W 118°16'1 0.6
2014-Sep-14 13:34N 33°44' W 118°16'8 8.4
2014-Sep-14 12:33N 33°39' W 118°08'4 4.4
2014-Sep-14 11:33N 33°40' W 118°03'0 0.0
2014-Sep-14 10:33N 33°40' W 118°03'0 0.1
2014-Sep-14 09:33N 33°40' W 118°03'0 0.1
2014-Sep-14 08:34N 33°40' W 118°03'0 0.1
2014-Sep-14 07:33N 33°40' W 118°03'0 0.0
2014-Sep-14 06:33N 33°40' W 118°03'0 0.0
2014-Sep-14 05:33N 33°40' W 118°03'9 8.6
2014-Sep-14 04:34N 33°40' W 118°13'5 4.6
2014-Sep-14 03:33N 33°44' W 118°16'0 0.0
2014-Sep-14 02:34N 33°44' W 118°16'2 2.2
2014-Sep-14 01:33N 33°43' W 118°14'10 2.5
2014-Sep-13 21:33N 33°40' W 118°03'0 0.0
2014-Sep-13 20:33N 33°40' W 118°03'8 7.8
2014-Sep-13 19:33N 33°43' W 118°11'4 4.4
2014-Sep-13 18:34N 33°44' W 118°16'0 0.0
2014-Sep-13 17:34N 33°44' W 118°16'0 0.0
2014-Sep-13 16:34N 33°44' W 118°16'0 0.0
2014-Sep-13 15:33N 33°44' W 118°16'0 0.0
2014-Sep-13 14:33N 33°44' W 118°16'0 0.0
2014-Sep-13 13:33N 33°44' W 118°16'7 7.0
2014-Sep-13 12:33N 33°44' W 118°08'6 5.9
2014-Sep-13 11:33N 33°40' W 118°03'0 0.0
2014-Sep-13 10:34N 33°40' W 118°03'0 0.1
2014-Sep-13 09:33N 33°40' W 118°03'0 0.1
2014-Sep-13 08:33N 33°40' W 118°03'0 0.1
2014-Sep-13 07:33N 33°40' W 118°03'0 0.2
2014-Sep-13 06:33N 33°40' W 118°02'0 0.0
2014-Sep-13 05:33N 33°40' W 118°02'0 0.2
2014-Sep-13 04:33N 33°40' W 118°03'0 0.0
2014-Sep-13 03:33N 33°40' W 118°03'9 8.1
2014-Sep-13 02:27N 33°43' W 118°12'3 3.6
2014-Sep-13 01:33N 33°44' W 118°16'0 0.0
2014-Sep-13 00:33N 33°44' W 118°16'0 0.0
2014-Sep-12 23:33N 33°44' W 118°16'0 0.1
2014-Sep-12 22:33N 33°44' W 118°16'0 0.0
2014-Sep-12 21:33N 33°44' W 118°16'0 0.0
2014-Sep-12 20:33N 33°44' W 118°16'4 3.5
2014-Sep-12 19:33N 33°44' W 118°12'9 8.7
2014-Sep-12 18:33N 33°40' W 118°03'0 0.1
2014-Sep-12 17:33N 33°40' W 118°03'0 0.0
2014-Sep-12 16:33N 33°40' W 118°03'0 0.0
2014-Sep-12 15:33N 33°40' W 118°03'0 0.0
2014-Sep-12 14:33N 33°40' W 118°03'0 0.1
2014-Sep-12 13:33N 33°40' W 118°03'0 0.0
2014-Sep-12 12:33N 33°40' W 118°03'0 0.1
2014-Sep-12 11:33N 33°40' W 118°03'0 0.1
2014-Sep-12 10:33N 33°40' W 118°03'0 0.0
2014-Sep-12 09:33N 33°40' W 118°03'0 0.0
2014-Sep-12 08:33N 33°40' W 118°03'0 0.0
2014-Sep-12 07:33N 33°40' W 118°03'0 0.0
2014-Sep-12 06:33N 33°40' W 118°03'5 4.7
2014-Sep-12 05:33N 33°43' W 118°07'8 7.9
2014-Sep-12 04:33N 33°44' W 118°16'0 0.3
2014-Sep-12 03:33N 33°44' W 118°16'0 0.0
2014-Sep-12 02:33N 33°44' W 118°16'0 0.0
2014-Sep-12 01:33N 33°44' W 118°16'0 0.0
2014-Sep-12 00:33N 33°44' W 118°16'1 1.1
2014-Sep-11 23:33N 33°43' W 118°16'9 9.1
2014-Sep-11 22:33N 33°41' W 118°05'2 2.3
2014-Sep-11 21:33N 33°40' W 118°03'0 0.1
2014-Sep-11 20:33N 33°40' W 118°03'0 0.1
2014-Sep-11 19:33N 33°40' W 118°03'0 0.1
2014-Sep-11 18:33N 33°40' W 118°03'8 8.4
2014-Sep-11 17:33N 33°44' W 118°12'4 3.8
2014-Sep-11 16:33N 33°44' W 118°16'0 0.0
2014-Sep-11 15:33N 33°44' W 118°16'0 0.0
2014-Sep-11 14:33N 33°44' W 118°16'3 2.8
2014-Sep-11 13:33N 33°43' W 118°13'  

Dump ship's entire track history